sensor_id;sensor_type;location;lat;lon;timestamp;temperature;humidity
15172;DHT22;7686;52.184;9.280;2023-01-19T00:00:33;26.90;35.20
15172;DHT22;7686;52.184;9.280;2023-01-19T00:03:00;26.90;35.20
15172;DHT22;7686;52.184;9.280;2023-01-19T00:05:28;26.90;35.20
15172;DHT22;7686;52.184;9.280;2023-01-19T00:07:55;26.90;35.20
15172;DHT22;7686;52.184;9.280;2023-01-19T00:10:22;26.80;35.10
15172;DHT22;7686;52.184;9.280;2023-01-19T00:12:48;26.90;35.20
15172;DHT22;7686;52.184;9.280;2023-01-19T00:15:15;26.90;35.20
15172;DHT22;7686;52.184;9.280;2023-01-19T00:17:41;26.80;35.10
15172;DHT22;7686;52.184;9.280;2023-01-19T00:20:09;26.80;35.10
15172;DHT22;7686;52.184;9.280;2023-01-19T00:22:35;26.80;35.10
15172;DHT22;7686;52.184;9.280;2023-01-19T00:25:02;26.80;35.20
15172;DHT22;7686;52.184;9.280;2023-01-19T00:27:29;26.80;35.10
15172;DHT22;7686;52.184;9.280;2023-01-19T00:30:00;26.80;35.20
15172;DHT22;7686;52.184;9.280;2023-01-19T00:32:27;26.80;35.10
15172;DHT22;7686;52.184;9.280;2023-01-19T00:34:53;26.80;35.10
15172;DHT22;7686;52.184;9.280;2023-01-19T00:37:20;26.80;35.10
15172;DHT22;7686;52.184;9.280;2023-01-19T00:39:47;26.80;35.10
15172;DHT22;7686;52.184;9.280;2023-01-19T00:42:13;26.80;35.20
15172;DHT22;7686;52.184;9.280;2023-01-19T00:44:58;26.80;35.10
15172;DHT22;7686;52.184;9.280;2023-01-19T00:47:25;26.80;35.10
15172;DHT22;7686;52.184;9.280;2023-01-19T00:49:52;26.80;35.20
15172;DHT22;7686;52.184;9.280;2023-01-19T00:52:18;26.80;35.20
15172;DHT22;7686;52.184;9.280;2023-01-19T00:54:45;26.80;35.20
15172;DHT22;7686;52.184;9.280;2023-01-19T00:57:12;26.80;35.20
15172;DHT22;7686;52.184;9.280;2023-01-19T00:59:40;26.70;35.10
15172;DHT22;7686;52.184;9.280;2023-01-19T01:02:06;26.80;35.20
15172;DHT22;7686;52.184;9.280;2023-01-19T01:04:33;26.70;35.10
15172;DHT22;7686;52.184;9.280;2023-01-19T01:07:00;26.80;35.20
15172;DHT22;7686;52.184;9.280;2023-01-19T01:09:27;26.70;35.10
15172;DHT22;7686;52.184;9.280;2023-01-19T01:11:53;26.70;35.10
15172;DHT22;7686;52.184;9.280;2023-01-19T01:14:20;26.70;35.10
15172;DHT22;7686;52.184;9.280;2023-01-19T01:16:47;26.70;35.10
15172;DHT22;7686;52.184;9.280;2023-01-19T01:19:14;26.70;35.10
15172;DHT22;7686;52.184;9.280;2023-01-19T01:21:41;26.70;35.10
15172;DHT22;7686;52.184;9.280;2023-01-19T01:24:08;26.70;35.10
15172;DHT22;7686;52.184;9.280;2023-01-19T01:26:35;26.70;35.20
15172;DHT22;7686;52.184;9.280;2023-01-19T01:29:04;26.70;35.10
15172;DHT22;7686;52.184;9.280;2023-01-19T01:31:31;26.70;35.10
15172;DHT22;7686;52.184;9.280;2023-01-19T01:33:58;26.70;35.10
15172;DHT22;7686;52.184;9.280;2023-01-19T01:36:24;26.70;35.10
15172;DHT22;7686;52.184;9.280;2023-01-19T01:38:54;26.70;35.10
15172;DHT22;7686;52.184;9.280;2023-01-19T01:41:21;26.70;35.10
15172;DHT22;7686;52.184;9.280;2023-01-19T01:43:53;26.70;35.10
15172;DHT22;7686;52.184;9.280;2023-01-19T01:46:25;26.70;35.10
15172;DHT22;7686;52.184;9.280;2023-01-19T01:51:30;26.70;35.10
15172;DHT22;7686;52.184;9.280;2023-01-19T01:56:36;26.70;35.20
15172;DHT22;7686;52.184;9.280;2023-01-19T01:59:06;26.70;35.10
15172;DHT22;7686;52.184;9.280;2023-01-19T02:01:35;26.70;35.20
15172;DHT22;7686;52.184;9.280;2023-01-19T02:04:21;26.70;35.10
15172;DHT22;7686;52.184;9.280;2023-01-19T02:06:48;26.70;35.10
15172;DHT22;7686;52.184;9.280;2023-01-19T02:09:35;26.70;35.10
15172;DHT22;7686;52.184;9.280;2023-01-19T02:12:22;26.70;35.20
15172;DHT22;7686;52.184;9.280;2023-01-19T02:15:15;26.60;35.10
15172;DHT22;7686;52.184;9.280;2023-01-19T02:17:42;26.60;35.10
15172;DHT22;7686;52.184;9.280;2023-01-19T02:20:10;26.60;35.10
15172;DHT22;7686;52.184;9.280;2023-01-19T02:22:44;26.60;35.20
15172;DHT22;7686;52.184;9.280;2023-01-19T02:25:12;26.60;35.20
15172;DHT22;7686;52.184;9.280;2023-01-19T02:27:39;26.60;35.20
15172;DHT22;7686;52.184;9.280;2023-01-19T02:30:07;26.60;35.20
15172;DHT22;7686;52.184;9.280;2023-01-19T02:32:35;26.60;35.10
15172;DHT22;7686;52.184;9.280;2023-01-19T02:35:02;26.60;35.20
15172;DHT22;7686;52.184;9.280;2023-01-19T02:37:32;26.60;35.20
15172;DHT22;7686;52.184;9.280;2023-01-19T02:40:03;26.60;35.20
15172;DHT22;7686;52.184;9.280;2023-01-19T02:42:34;26.60;35.20
15172;DHT22;7686;52.184;9.280;2023-01-19T02:45:03;26.60;35.20
15172;DHT22;7686;52.184;9.280;2023-01-19T02:47:40;26.60;35.10
15172;DHT22;7686;52.184;9.280;2023-01-19T02:50:43;26.60;35.20
15172;DHT22;7686;52.184;9.280;2023-01-19T02:53:20;26.60;35.20
15172;DHT22;7686;52.184;9.280;2023-01-19T02:56:06;26.60;35.10
15172;DHT22;7686;52.184;9.280;2023-01-19T02:59:00;26.60;35.20
15172;DHT22;7686;52.184;9.280;2023-01-19T03:12:49;26.50;35.10
15172;DHT22;7686;52.184;9.280;2023-01-19T03:15:47;26.50;35.10
15172;DHT22;7686;52.184;9.280;2023-01-19T03:18:18;26.50;35.10
15172;DHT22;7686;52.184;9.280;2023-01-19T03:20:47;26.50;35.20
15172;DHT22;7686;52.184;9.280;2023-01-19T03:23:16;26.50;35.20
15172;DHT22;7686;52.184;9.280;2023-01-19T03:25:45;26.50;35.20
15172;DHT22;7686;52.184;9.280;2023-01-19T03:28:14;26.50;35.20
15172;DHT22;7686;52.184;9.280;2023-01-19T03:30:45;26.50;35.20
15172;DHT22;7686;52.184;9.280;2023-01-19T03:33:39;26.50;35.20
15172;DHT22;7686;52.184;9.280;2023-01-19T03:36:25;26.50;35.20
15172;DHT22;7686;52.184;9.280;2023-01-19T03:38:56;26.50;35.20
15172;DHT22;7686;52.184;9.280;2023-01-19T03:41:24;26.50;35.10
15172;DHT22;7686;52.184;9.280;2023-01-19T03:43:52;26.50;35.20
15172;DHT22;7686;52.184;9.280;2023-01-19T03:46:21;26.50;35.20
15172;DHT22;7686;52.184;9.280;2023-01-19T03:48:49;26.50;35.20
15172;DHT22;7686;52.184;9.280;2023-01-19T03:51:16;26.50;35.20
15172;DHT22;7686;52.184;9.280;2023-01-19T03:53:45;26.50;35.20
15172;DHT22;7686;52.184;9.280;2023-01-19T03:56:19;26.50;35.20
15172;DHT22;7686;52.184;9.280;2023-01-19T03:58:46;26.40;35.20
15172;DHT22;7686;52.184;9.280;2023-01-19T04:01:13;26.50;35.20
15172;DHT22;7686;52.184;9.280;2023-01-19T04:03:41;26.50;35.20
15172;DHT22;7686;52.184;9.280;2023-01-19T04:06:09;26.50;35.20
15172;DHT22;7686;52.184;9.280;2023-01-19T04:08:36;26.40;35.10
15172;DHT22;7686;52.184;9.280;2023-01-19T04:11:02;26.40;35.10
15172;DHT22;7686;52.184;9.280;2023-01-19T04:13:29;26.50;35.20
15172;DHT22;7686;52.184;9.280;2023-01-19T04:16:03;26.40;35.10
15172;DHT22;7686;52.184;9.280;2023-01-19T04:18:31;26.40;35.10
15172;DHT22;7686;52.184;9.280;2023-01-19T04:21:05;26.50;35.20
15172;DHT22;7686;52.184;9.280;2023-01-19T04:23:33;26.40;35.10
15172;DHT22;7686;52.184;9.280;2023-01-19T04:26:02;26.40;35.00
15172;DHT22;7686;52.184;9.280;2023-01-19T04:28:30;26.40;35.00
15172;DHT22;7686;52.184;9.280;2023-01-19T04:30:57;26.40;35.00
15172;DHT22;7686;52.184;9.280;2023-01-19T04:33:25;26.40;35.10
15172;DHT22;7686;52.184;9.280;2023-01-19T04:35:52;26.40;35.00
15172;DHT22;7686;52.184;9.280;2023-01-19T04:38:20;26.50;35.10
15172;DHT22;7686;52.184;9.280;2023-01-19T04:40:51;26.50;35.10
15172;DHT22;7686;52.184;9.280;2023-01-19T04:43:19;26.40;35.00
15172;DHT22;7686;52.184;9.280;2023-01-19T04:45:46;26.40;35.00
15172;DHT22;7686;52.184;9.280;2023-01-19T04:48:13;26.50;35.20
15172;DHT22;7686;52.184;9.280;2023-01-19T04:50:40;26.50;35.20
15172;DHT22;7686;52.184;9.280;2023-01-19T04:53:07;26.50;35.20
15172;DHT22;7686;52.184;9.280;2023-01-19T04:55:35;26.50;35.10
15172;DHT22;7686;52.184;9.280;2023-01-19T04:58:02;26.50;35.20
15172;DHT22;7686;52.184;9.280;2023-01-19T05:00:29;26.50;35.20
15172;DHT22;7686;52.184;9.280;2023-01-19T05:02:56;26.50;35.20
15172;DHT22;7686;52.184;9.280;2023-01-19T05:05:22;26.50;35.20
15172;DHT22;7686;52.184;9.280;2023-01-19T05:07:50;26.50;35.20
15172;DHT22;7686;52.184;9.280;2023-01-19T05:10:17;26.50;35.20
15172;DHT22;7686;52.184;9.280;2023-01-19T05:12:44;26.50;35.30
15172;DHT22;7686;52.184;9.280;2023-01-19T05:15:11;26.50;35.20
15172;DHT22;7686;52.184;9.280;2023-01-19T05:17:37;26.50;35.30
15172;DHT22;7686;52.184;9.280;2023-01-19T05:20:04;26.50;35.30
15172;DHT22;7686;52.184;9.280;2023-01-19T05:22:31;26.50;35.40
15172;DHT22;7686;52.184;9.280;2023-01-19T05:24:58;26.50;35.50
15172;DHT22;7686;52.184;9.280;2023-01-19T05:27:25;26.50;35.50
15172;DHT22;7686;52.184;9.280;2023-01-19T05:29:51;26.60;35.60
15172;DHT22;7686;52.184;9.280;2023-01-19T05:32:18;26.60;36.30
15172;DHT22;7686;52.184;9.280;2023-01-19T05:34:45;26.60;35.50
15172;DHT22;7686;52.184;9.280;2023-01-19T05:37:12;26.70;35.60
15172;DHT22;7686;52.184;9.280;2023-01-19T05:39:39;26.70;35.60
15172;DHT22;7686;52.184;9.280;2023-01-19T05:42:06;26.80;35.50
15172;DHT22;7686;52.184;9.280;2023-01-19T05:44:32;26.80;35.40
15172;DHT22;7686;52.184;9.280;2023-01-19T05:46:59;26.80;35.40
15172;DHT22;7686;52.184;9.280;2023-01-19T05:49:26;26.90;35.50
15172;DHT22;7686;52.184;9.280;2023-01-19T05:51:52;27.00;35.40
15172;DHT22;7686;52.184;9.280;2023-01-19T05:54:19;27.00;35.30
15172;DHT22;7686;52.184;9.280;2023-01-19T05:56:46;27.00;35.20
15172;DHT22;7686;52.184;9.280;2023-01-19T05:59:12;27.10;35.90
15172;DHT22;7686;52.184;9.280;2023-01-19T06:01:40;27.10;35.10
15172;DHT22;7686;52.184;9.280;2023-01-19T06:04:07;27.10;35.00
15172;DHT22;7686;52.184;9.280;2023-01-19T06:06:34;27.20;35.00
15172;DHT22;7686;52.184;9.280;2023-01-19T06:09:00;27.20;34.90
15172;DHT22;7686;52.184;9.280;2023-01-19T06:11:27;27.30;34.90
15172;DHT22;7686;52.184;9.280;2023-01-19T06:13:54;27.30;34.80
15172;DHT22;7686;52.184;9.280;2023-01-19T06:16:20;27.30;34.80
15172;DHT22;7686;52.184;9.280;2023-01-19T06:18:47;27.40;34.70
15172;DHT22;7686;52.184;9.280;2023-01-19T06:21:14;27.40;34.60
15172;DHT22;7686;52.184;9.280;2023-01-19T06:23:40;27.50;34.70
15172;DHT22;7686;52.184;9.280;2023-01-19T06:26:07;27.50;34.60
15172;DHT22;7686;52.184;9.280;2023-01-19T06:28:34;27.50;34.60
15172;DHT22;7686;52.184;9.280;2023-01-19T06:31:00;27.60;34.60
15172;DHT22;7686;52.184;9.280;2023-01-19T06:33:27;27.60;34.60
15172;DHT22;7686;52.184;9.280;2023-01-19T06:35:55;27.60;34.60
15172;DHT22;7686;52.184;9.280;2023-01-19T06:38:21;27.60;34.40
15172;DHT22;7686;52.184;9.280;2023-01-19T06:40:53;27.60;34.40
15172;DHT22;7686;52.184;9.280;2023-01-19T06:43:20;27.60;34.30
15172;DHT22;7686;52.184;9.280;2023-01-19T06:45:47;27.70;34.30
15172;DHT22;7686;52.184;9.280;2023-01-19T06:48:14;27.70;34.30
15172;DHT22;7686;52.184;9.280;2023-01-19T06:50:44;27.70;34.40
15172;DHT22;7686;52.184;9.280;2023-01-19T06:53:11;27.70;34.30
15172;DHT22;7686;52.184;9.280;2023-01-19T06:55:38;27.70;34.30
15172;DHT22;7686;52.184;9.280;2023-01-19T06:58:04;27.70;34.30
15172;DHT22;7686;52.184;9.280;2023-01-19T07:00:31;27.70;34.30
15172;DHT22;7686;52.184;9.280;2023-01-19T07:02:58;27.70;34.30
15172;DHT22;7686;52.184;9.280;2023-01-19T07:05:26;27.70;34.20
15172;DHT22;7686;52.184;9.280;2023-01-19T07:07:54;27.80;34.20
15172;DHT22;7686;52.184;9.280;2023-01-19T07:10:22;27.80;35.10
15172;DHT22;7686;52.184;9.280;2023-01-19T07:12:49;27.80;34.30
15172;DHT22;7686;52.184;9.280;2023-01-19T07:15:19;27.80;34.20
15172;DHT22;7686;52.184;9.280;2023-01-19T07:17:47;27.80;34.10
15172;DHT22;7686;52.184;9.280;2023-01-19T07:20:14;27.80;34.10
15172;DHT22;7686;52.184;9.280;2023-01-19T07:22:41;27.80;34.20
15172;DHT22;7686;52.184;9.280;2023-01-19T07:25:12;27.80;34.10
15172;DHT22;7686;52.184;9.280;2023-01-19T07:27:39;27.90;34.20
15172;DHT22;7686;52.184;9.280;2023-01-19T07:30:07;27.90;34.10
15172;DHT22;7686;52.184;9.280;2023-01-19T07:32:34;27.90;34.10
15172;DHT22;7686;52.184;9.280;2023-01-19T07:35:01;27.90;34.20
15172;DHT22;7686;52.184;9.280;2023-01-19T07:37:28;27.90;34.10
15172;DHT22;7686;52.184;9.280;2023-01-19T07:39:55;27.90;34.10
15172;DHT22;7686;52.184;9.280;2023-01-19T07:42:21;27.90;34.10
15172;DHT22;7686;52.184;9.280;2023-01-19T07:44:48;28.00;34.10
15172;DHT22;7686;52.184;9.280;2023-01-19T07:47:15;28.00;34.00
15172;DHT22;7686;52.184;9.280;2023-01-19T07:49:41;28.00;34.00
15172;DHT22;7686;52.184;9.280;2023-01-19T07:52:08;28.00;34.00
15172;DHT22;7686;52.184;9.280;2023-01-19T07:54:35;28.00;33.90
15172;DHT22;7686;52.184;9.280;2023-01-19T07:57:02;28.00;33.90
15172;DHT22;7686;52.184;9.280;2023-01-19T07:59:29;28.10;33.90
15172;DHT22;7686;52.184;9.280;2023-01-19T08:01:57;28.10;33.90
15172;DHT22;7686;52.184;9.280;2023-01-19T08:04:26;28.10;33.90
15172;DHT22;7686;52.184;9.280;2023-01-19T08:06:53;28.10;33.90
15172;DHT22;7686;52.184;9.280;2023-01-19T08:09:20;28.10;33.80
15172;DHT22;7686;52.184;9.280;2023-01-19T08:11:47;28.10;33.80
15172;DHT22;7686;52.184;9.280;2023-01-19T08:14:14;28.20;33.80
15172;DHT22;7686;52.184;9.280;2023-01-19T08:16:41;28.20;33.80
15172;DHT22;7686;52.184;9.280;2023-01-19T08:19:07;28.20;33.80
15172;DHT22;7686;52.184;9.280;2023-01-19T08:21:34;28.20;33.80
15172;DHT22;7686;52.184;9.280;2023-01-19T08:24:02;28.20;33.80
15172;DHT22;7686;52.184;9.280;2023-01-19T08:26:31;28.20;33.70
15172;DHT22;7686;52.184;9.280;2023-01-19T08:29:01;28.20;33.70
15172;DHT22;7686;52.184;9.280;2023-01-19T08:31:28;28.20;33.60
15172;DHT22;7686;52.184;9.280;2023-01-19T08:33:56;28.40;33.80
15172;DHT22;7686;52.184;9.280;2023-01-19T08:36:22;28.20;33.60
15172;DHT22;7686;52.184;9.280;2023-01-19T08:38:50;28.20;33.60
15172;DHT22;7686;52.184;9.280;2023-01-19T08:41:17;28.30;33.70
15172;DHT22;7686;52.184;9.280;2023-01-19T08:43:44;28.30;33.70
15172;DHT22;7686;52.184;9.280;2023-01-19T08:46:11;28.30;33.70
15172;DHT22;7686;52.184;9.280;2023-01-19T08:48:38;28.30;33.70
15172;DHT22;7686;52.184;9.280;2023-01-19T08:51:05;28.30;33.70
15172;DHT22;7686;52.184;9.280;2023-01-19T08:53:32;28.30;33.70
15172;DHT22;7686;52.184;9.280;2023-01-19T08:55:59;28.30;33.70
15172;DHT22;7686;52.184;9.280;2023-01-19T08:58:27;28.30;33.60
15172;DHT22;7686;52.184;9.280;2023-01-19T09:00:54;28.30;33.60
15172;DHT22;7686;52.184;9.280;2023-01-19T09:03:21;28.30;33.60
15172;DHT22;7686;52.184;9.280;2023-01-19T09:05:48;28.30;33.60
15172;DHT22;7686;52.184;9.280;2023-01-19T09:08:15;28.30;33.60
15172;DHT22;7686;52.184;9.280;2023-01-19T09:10:48;28.30;33.70
15172;DHT22;7686;52.184;9.280;2023-01-19T09:13:15;28.30;33.70
15172;DHT22;7686;52.184;9.280;2023-01-19T09:15:42;28.30;33.70
15172;DHT22;7686;52.184;9.280;2023-01-19T09:18:12;28.40;33.70
15172;DHT22;7686;52.184;9.280;2023-01-19T09:20:40;28.30;33.80
15172;DHT22;7686;52.184;9.280;2023-01-19T09:23:09;28.30;33.70
15172;DHT22;7686;52.184;9.280;2023-01-19T09:25:37;28.30;33.70
15172;DHT22;7686;52.184;9.280;2023-01-19T09:28:08;28.30;33.70
15172;DHT22;7686;52.184;9.280;2023-01-19T09:30:37;28.30;33.70
15172;DHT22;7686;52.184;9.280;2023-01-19T09:33:07;28.30;33.80
15172;DHT22;7686;52.184;9.280;2023-01-19T09:35:34;28.30;33.70
15172;DHT22;7686;52.184;9.280;2023-01-19T09:38:00;28.30;33.70
15172;DHT22;7686;52.184;9.280;2023-01-19T09:40:28;28.30;33.70
15172;DHT22;7686;52.184;9.280;2023-01-19T09:42:59;28.30;33.80
15172;DHT22;7686;52.184;9.280;2023-01-19T09:48:25;28.30;33.70
15172;DHT22;7686;52.184;9.280;2023-01-19T09:50:56;28.30;33.80
15172;DHT22;7686;52.184;9.280;2023-01-19T09:56:19;28.30;30.10
15172;DHT22;7686;52.184;9.280;2023-01-19T09:58:48;28.30;29.90
15172;DHT22;7686;52.184;9.280;2023-01-19T10:01:28;28.20;30.90
15172;DHT22;7686;52.184;9.280;2023-01-19T10:04:37;28.10;31.20
15172;DHT22;7686;52.184;9.280;2023-01-19T10:07:15;28.00;31.80
15172;DHT22;7686;52.184;9.280;2023-01-19T10:15:55;27.80;32.60
15172;DHT22;7686;52.184;9.280;2023-01-19T10:18:41;27.80;32.70
15172;DHT22;7686;52.184;9.280;2023-01-19T10:21:20;27.80;32.80
15172;DHT22;7686;52.184;9.280;2023-01-19T10:24:02;27.80;33.00
15172;DHT22;7686;52.184;9.280;2023-01-19T10:26:33;27.80;32.70
15172;DHT22;7686;52.184;9.280;2023-01-19T10:31:51;27.80;32.40
15172;DHT22;7686;52.184;9.280;2023-01-19T10:34:18;27.80;32.50
15172;DHT22;7686;52.184;9.280;2023-01-19T10:36:52;27.80;32.80
15172;DHT22;7686;52.184;9.280;2023-01-19T10:39:21;27.80;32.30
15172;DHT22;7686;52.184;9.280;2023-01-19T10:41:52;27.70;31.90
15172;DHT22;7686;52.184;9.280;2023-01-19T10:44:27;27.80;31.50
15172;DHT22;7686;52.184;9.280;2023-01-19T10:46:56;27.80;31.80
15172;DHT22;7686;52.184;9.280;2023-01-19T10:49:38;27.80;32.10
15172;DHT22;7686;52.184;9.280;2023-01-19T10:52:07;27.80;32.00
15172;DHT22;7686;52.184;9.280;2023-01-19T10:54:35;27.80;32.00
15172;DHT22;7686;52.184;9.280;2023-01-19T10:57:06;27.80;31.70
15172;DHT22;7686;52.184;9.280;2023-01-19T10:59:46;27.80;31.60
15172;DHT22;7686;52.184;9.280;2023-01-19T11:02:19;27.70;31.30
15172;DHT22;7686;52.184;9.280;2023-01-19T11:04:48;27.80;31.30
15172;DHT22;7686;52.184;9.280;2023-01-19T11:07:18;27.70;31.00
15172;DHT22;7686;52.184;9.280;2023-01-19T11:09:46;27.70;31.10
15172;DHT22;7686;52.184;9.280;2023-01-19T11:12:21;27.70;30.90
15172;DHT22;7686;52.184;9.280;2023-01-19T11:14:50;27.70;30.90
15172;DHT22;7686;52.184;9.280;2023-01-19T11:17:23;27.70;30.90
15172;DHT22;7686;52.184;9.280;2023-01-19T11:20:00;27.70;30.80
15172;DHT22;7686;52.184;9.280;2023-01-19T11:22:31;27.70;30.90
15172;DHT22;7686;52.184;9.280;2023-01-19T11:25:04;27.70;31.00
15172;DHT22;7686;52.184;9.280;2023-01-19T11:27:33;27.70;31.10
15172;DHT22;7686;52.184;9.280;2023-01-19T11:32:36;27.70;31.30
15172;DHT22;7686;52.184;9.280;2023-01-19T11:35:38;27.70;31.50
15172;DHT22;7686;52.184;9.280;2023-01-19T11:40:39;27.60;30.50
15172;DHT22;7686;52.184;9.280;2023-01-19T11:43:11;27.60;30.70
15172;DHT22;7686;52.184;9.280;2023-01-19T11:45:38;27.60;30.80
15172;DHT22;7686;52.184;9.280;2023-01-19T11:48:06;27.50;31.00
15172;DHT22;7686;52.184;9.280;2023-01-19T11:50:43;27.50;31.00
15172;DHT22;7686;52.184;9.280;2023-01-19T11:53:17;27.50;31.10
15172;DHT22;7686;52.184;9.280;2023-01-19T11:56:15;27.60;31.20
15172;DHT22;7686;52.184;9.280;2023-01-19T11:58:43;27.50;31.20
15172;DHT22;7686;52.184;9.280;2023-01-19T12:01:23;27.60;31.40
15172;DHT22;7686;52.184;9.280;2023-01-19T12:03:55;27.60;31.40
15172;DHT22;7686;52.184;9.280;2023-01-19T12:06:34;27.60;31.50
15172;DHT22;7686;52.184;9.280;2023-01-19T12:09:18;27.60;31.50
15172;DHT22;7686;52.184;9.280;2023-01-19T12:11:56;27.60;31.60
15172;DHT22;7686;52.184;9.280;2023-01-19T12:14:30;27.60;31.70
15172;DHT22;7686;52.184;9.280;2023-01-19T12:17:02;27.70;31.80
15172;DHT22;7686;52.184;9.280;2023-01-19T12:19:45;27.70;31.80
15172;DHT22;7686;52.184;9.280;2023-01-19T12:22:16;27.70;31.80
15172;DHT22;7686;52.184;9.280;2023-01-19T12:24:54;27.70;31.80
15172;DHT22;7686;52.184;9.280;2023-01-19T12:27:40;27.70;31.80
15172;DHT22;7686;52.184;9.280;2023-01-19T12:30:33;27.70;31.80
15172;DHT22;7686;52.184;9.280;2023-01-19T12:33:33;27.80;31.90
15172;DHT22;7686;52.184;9.280;2023-01-19T12:38:48;27.80;31.90
15172;DHT22;7686;52.184;9.280;2023-01-19T12:46:37;27.90;32.10
15172;DHT22;7686;52.184;9.280;2023-01-19T12:51:43;27.90;31.90
15172;DHT22;7686;52.184;9.280;2023-01-19T12:56:48;27.90;31.90
15172;DHT22;7686;52.184;9.280;2023-01-19T12:59:24;27.90;32.00
15172;DHT22;7686;52.184;9.280;2023-01-19T13:13:38;27.90;32.20
15172;DHT22;7686;52.184;9.280;2023-01-19T13:21:37;28.00;32.50
15172;DHT22;7686;52.184;9.280;2023-01-19T13:24:12;28.00;32.50
15172;DHT22;7686;52.184;9.280;2023-01-19T13:27:01;28.00;32.60
15172;DHT22;7686;52.184;9.280;2023-01-19T13:29:32;28.00;32.60
15172;DHT22;7686;52.184;9.280;2023-01-19T13:32:02;28.00;32.60
15172;DHT22;7686;52.184;9.280;2023-01-19T13:35:13;28.00;32.60
15172;DHT22;7686;52.184;9.280;2023-01-19T13:37:37;28.10;32.70
15172;DHT22;7686;52.184;9.280;2023-01-19T13:40:05;28.00;32.60
15172;DHT22;7686;52.184;9.280;2023-01-19T13:42:37;28.10;32.60
15172;DHT22;7686;52.184;9.280;2023-01-19T13:45:30;28.10;32.70
15172;DHT22;7686;52.184;9.280;2023-01-19T13:48:00;28.10;32.60
15172;DHT22;7686;52.184;9.280;2023-01-19T13:50:35;28.30;32.70
15172;DHT22;7686;52.184;9.280;2023-01-19T13:53:20;28.30;32.80
15172;DHT22;7686;52.184;9.280;2023-01-19T13:56:18;28.20;32.60
15172;DHT22;7686;52.184;9.280;2023-01-19T13:59:05;28.20;32.60
15172;DHT22;7686;52.184;9.280;2023-01-19T14:01:43;28.20;32.60
15172;DHT22;7686;52.184;9.280;2023-01-19T14:04:37;28.20;32.60
15172;DHT22;7686;52.184;9.280;2023-01-19T14:07:18;28.20;32.50
15172;DHT22;7686;52.184;9.280;2023-01-19T14:10:03;28.20;32.50
15172;DHT22;7686;52.184;9.280;2023-01-19T14:12:31;28.30;32.60
15172;DHT22;7686;52.184;9.280;2023-01-19T14:14:57;28.30;32.70
15172;DHT22;7686;52.184;9.280;2023-01-19T14:17:27;28.30;32.70
15172;DHT22;7686;52.184;9.280;2023-01-19T14:19:58;28.30;33.40
15172;DHT22;7686;52.184;9.280;2023-01-19T14:22:45;28.30;32.70
15172;DHT22;7686;52.184;9.280;2023-01-19T14:25:29;28.30;32.70
15172;DHT22;7686;52.184;9.280;2023-01-19T14:31:04;28.30;32.60
15172;DHT22;7686;52.184;9.280;2023-01-19T14:33:44;28.30;32.60
15172;DHT22;7686;52.184;9.280;2023-01-19T14:38:45;28.40;32.70
15172;DHT22;7686;52.184;9.280;2023-01-19T14:41:12;28.40;32.60
15172;DHT22;7686;52.184;9.280;2023-01-19T14:43:47;28.50;32.60
15172;DHT22;7686;52.184;9.280;2023-01-19T14:46:18;28.50;32.60
15172;DHT22;7686;52.184;9.280;2023-01-19T14:48:47;28.40;32.50
15172;DHT22;7686;52.184;9.280;2023-01-19T14:51:17;28.50;32.50
15172;DHT22;7686;52.184;9.280;2023-01-19T14:53:47;28.50;33.20
15172;DHT22;7686;52.184;9.280;2023-01-19T14:56:26;28.70;32.70
15172;DHT22;7686;52.184;9.280;2023-01-19T14:58:58;28.50;32.50
15172;DHT22;7686;52.184;9.280;2023-01-19T15:01:27;28.50;32.40
15172;DHT22;7686;52.184;9.280;2023-01-19T15:03:54;28.60;32.50
15172;DHT22;7686;52.184;9.280;2023-01-19T15:06:24;28.50;32.30
15172;DHT22;7686;52.184;9.280;2023-01-19T15:08:52;28.60;32.20
15172;DHT22;7686;52.184;9.280;2023-01-19T15:11:34;28.60;32.20
15172;DHT22;7686;52.184;9.280;2023-01-19T15:14:01;28.60;32.10
15172;DHT22;7686;52.184;9.280;2023-01-19T15:16:31;28.60;32.20
15172;DHT22;7686;52.184;9.280;2023-01-19T15:18:59;28.60;32.20
15172;DHT22;7686;52.184;9.280;2023-01-19T15:21:26;28.70;32.30
15172;DHT22;7686;52.184;9.280;2023-01-19T15:23:53;28.70;32.30
15172;DHT22;7686;52.184;9.280;2023-01-19T15:26:22;28.60;32.20
15172;DHT22;7686;52.184;9.280;2023-01-19T15:28:50;28.60;32.10
15172;DHT22;7686;52.184;9.280;2023-01-19T15:31:19;28.60;32.40
15172;DHT22;7686;52.184;9.280;2023-01-19T15:33:46;28.60;32.30
15172;DHT22;7686;52.184;9.280;2023-01-19T15:36:14;28.70;32.40
15172;DHT22;7686;52.184;9.280;2023-01-19T15:38:44;28.60;32.20
15172;DHT22;7686;52.184;9.280;2023-01-19T15:43:43;28.60;32.20
15172;DHT22;7686;52.184;9.280;2023-01-19T15:46:12;28.60;32.20
15172;DHT22;7686;52.184;9.280;2023-01-19T15:48:41;28.60;32.30
15172;DHT22;7686;52.184;9.280;2023-01-19T15:51:12;28.60;32.20
15172;DHT22;7686;52.184;9.280;2023-01-19T15:53:40;28.60;32.20
15172;DHT22;7686;52.184;9.280;2023-01-19T15:56:19;28.60;32.50
15172;DHT22;7686;52.184;9.280;2023-01-19T15:58:46;28.60;32.10
15172;DHT22;7686;52.184;9.280;2023-01-19T16:01:15;28.60;32.20
15172;DHT22;7686;52.184;9.280;2023-01-19T16:03:42;28.60;32.20
15172;DHT22;7686;52.184;9.280;2023-01-19T16:06:09;28.50;32.20
15172;DHT22;7686;52.184;9.280;2023-01-19T16:08:36;28.50;32.20
15172;DHT22;7686;52.184;9.280;2023-01-19T16:11:11;28.50;32.10
15172;DHT22;7686;52.184;9.280;2023-01-19T16:13:38;28.50;32.00
15172;DHT22;7686;52.184;9.280;2023-01-19T16:16:08;28.50;32.00
15172;DHT22;7686;52.184;9.280;2023-01-19T16:18:37;28.50;32.00
15172;DHT22;7686;52.184;9.280;2023-01-19T16:21:04;28.50;32.00
15172;DHT22;7686;52.184;9.280;2023-01-19T16:23:31;28.50;32.00
15172;DHT22;7686;52.184;9.280;2023-01-19T16:25:59;28.50;32.00
15172;DHT22;7686;52.184;9.280;2023-01-19T16:28:26;28.50;32.00
15172;DHT22;7686;52.184;9.280;2023-01-19T16:30:53;28.50;32.00
15172;DHT22;7686;52.184;9.280;2023-01-19T16:33:20;28.40;32.00
15172;DHT22;7686;52.184;9.280;2023-01-19T16:35:46;28.40;32.00
15172;DHT22;7686;52.184;9.280;2023-01-19T16:38:14;28.40;32.10
15172;DHT22;7686;52.184;9.280;2023-01-19T16:40:43;28.50;32.20
15172;DHT22;7686;52.184;9.280;2023-01-19T16:43:11;28.40;32.20
15172;DHT22;7686;52.184;9.280;2023-01-19T16:45:58;28.40;32.30
15172;DHT22;7686;52.184;9.280;2023-01-19T16:48:26;28.40;32.30
15172;DHT22;7686;52.184;9.280;2023-01-19T16:51:01;28.40;32.40
15172;DHT22;7686;52.184;9.280;2023-01-19T16:53:29;28.40;32.40
15172;DHT22;7686;52.184;9.280;2023-01-19T16:55:55;28.40;32.50
15172;DHT22;7686;52.184;9.280;2023-01-19T16:58:22;28.40;32.60
15172;DHT22;7686;52.184;9.280;2023-01-19T17:00:49;28.40;32.60
15172;DHT22;7686;52.184;9.280;2023-01-19T17:03:16;28.30;32.60
15172;DHT22;7686;52.184;9.280;2023-01-19T17:05:48;28.30;32.70
15172;DHT22;7686;52.184;9.280;2023-01-19T17:08:16;28.30;32.70
15172;DHT22;7686;52.184;9.280;2023-01-19T17:10:43;28.30;32.80
15172;DHT22;7686;52.184;9.280;2023-01-19T17:13:10;28.30;32.90
15172;DHT22;7686;52.184;9.280;2023-01-19T17:15:36;28.30;32.90
15172;DHT22;7686;52.184;9.280;2023-01-19T17:18:03;28.30;33.00
15172;DHT22;7686;52.184;9.280;2023-01-19T17:20:32;28.30;33.00